Latest Coastal Weather Observations for Swanbourne

IDW60701

Issued at 6:12 pm WST Friday 22 May 2015 (issued every 10 minutes, with the page automatically refreshed every 10 minutes)

About coastal observations | Map of coastal stations | Coastal observations for WA | Marine services | Other Formats
Station Details ID: 009215 Name: SWANBOURNE Lat: -31.96 Lon: 115.76 Height: 40.96 m
Data from the previous 72 hours. | See also: Recent months at Swanbourne
Date/Time
WST
Temp

°C
Wind Pressure Rain
since 9am
mm
Weather Cloud Vis
km
Sea
Height
m
Swell
Dir
 
Speed
knots
Gust
knots
hPa Trend Height
m
Period
s
Dir
22/06:00pm 16.0 S 5 7 - - 0.0 - - - - - - -
22/05:30pm 16.7 S 5 7 - - 0.0 - - - - - - -
22/05:00pm 17.8 SSW 6 9 - - 0.0 - - - - - - -
22/04:30pm 19.0 SSW 6 8 - - 0.0 - - - - - - -
22/04:00pm 19.6 SSW 7 9 - - 0.0 - - - - - - -
22/03:30pm 19.3 SSW 5 8 - - 0.0 - - - - - - -
22/03:00pm 19.9 SW 7 9 - - 0.0 - - - - - - -
22/02:30pm 20.5 WSW 6 8 - - 0.0 - - - - - - -
22/02:00pm 21.4 SW 6 8 - - 0.0 - - - - - - -
22/01:30pm 21.8 SSW 2 4 - - 0.0 - - - - - - -
22/01:00pm 21.8 NE 2 7 - - 0.0 - - - - - - -
22/12:30pm 21.7 ENE 4 9 - - 0.0 - - - - - - -
22/12:00pm 21.2 ENE 5 8 - - 0.0 - - - - - - -
22/11:30am 20.3 ENE 7 10 - - 0.0 - - - - - - -
22/11:00am 19.8 NE 6 10 - - 0.0 - - - - - - -
22/10:30am 18.9 ENE 7 12 - - 0.0 - - - - - - -
22/10:00am 17.4 ENE 8 13 - - 0.0 - - - - - - -
22/09:30am 16.0 ENE 9 14 - - 0.0 - - - - - - -
22/09:00am 15.0 E 8 12 - - 0.0 - - - - - - -
22/08:30am 14.0 E 8 13 - - 0.0 - - - - - - -
22/08:00am 12.3 E 8 10 - - 0.0 - - - - - - -
22/07:30am 11.5 E 8 11 - - 0.0 - - - - - - -
22/07:00am 11.3 E 8 11 - - 0.0 - - - - - - -
22/06:30am 11.2 E 8 9 - - 0.0 - - - - - - -
22/06:00am 10.8 E 7 9 - - 0.0 - - - - - - -
22/05:30am 10.6 E 5 6 - - 0.0 - - - - - - -
22/05:00am 10.0 ESE 3 4 - - 0.0 - - - - - - -
22/04:30am 10.7 E 2 3 - - 0.0 - - - - - - -
22/04:00am 11.3 E 4 5 - - 0.0 - - - - - - -
22/03:30am 12.0 E 6 8 - - 0.0 - - - - - - -
22/03:00am 11.8 E 7 9 - - 0.0 - - - - - - -
22/02:30am 12.2 E 7 9 - - 0.0 - - - - - - -
22/02:00am 12.0 E 8 11 - - 0.0 - - - - - - -
22/01:30am 11.9 E 5 8 - - 0.0 - - - - - - -
22/01:00am 12.5 ESE 5 6 - - 0.0 - - - - - - -
22/12:30am 13.3 ESE 3 4 - - 0.0 - - - - - - -
22/12:00am 14.0 E 5 8 - - 0.0 - - - - - - -
 
Date/Time
WST
Temp

°C
Wind Pressure Rain
since 9am
mm
Weather Cloud Vis
km
Sea
Height
m
Swell
Dir
 
Speed
knots
Gust
knots
hPa Trend Height
m
Period
s
Dir
21/11:30pm 14.1 E 7 9 - - 0.0 - - - - - - -
21/11:00pm 14.9 E 7 11 - - 0.0 - - - - - - -
21/10:30pm 15.4 E 4 7 - - 0.0 - - - - - - -
21/10:00pm 15.6 E 5 9 - - 0.0 - - - - - - -
21/09:30pm 15.6 E 6 9 - - 0.0 - - - - - - -
21/09:00pm 15.5 E 5 8 - - 0.0 - - - - - - -
21/08:30pm 15.2 E 4 7 - - 0.0 - - - - - - -
21/08:00pm 14.9 ESE 6 9 - - 0.0 - - - - - - -
21/07:30pm 15.2 ESE 5 7 - - 0.0 - - - - - - -
21/07:00pm 15.3 ESE 5 7 - - 0.0 - - - - - - -
21/06:30pm 15.2 ESE 6 8 - - 0.0 - - - - - - -
21/06:00pm 15.3 ESE 5 7 - - 0.0 - - - - - - -
21/05:30pm 15.6 ESE 5 7 - - 0.0 - - - - - - -
21/05:00pm 16.8 ESE 5 9 - - 0.0 - - - - - - -
21/04:30pm 17.3 E 7 11 - - 0.0 - - - - - - -
21/04:00pm 17.6 E 7 11 - - 0.0 - - - - - - -
21/03:30pm 17.9 E 9 15 - - 0.0 - - - - - - -
21/03:00pm 18.8 ENE 10 17 - - 0.0 - - - - - - -
21/02:30pm 19.6 E 8 14 - - 0.0 - - - - - - -
21/02:00pm 18.1 E 8 14 - - 0.0 - - - - - - -
21/01:30pm 16.7 E 7 11 - - 0.0 - - - - - - -
21/01:00pm 16.4 E 9 16 - - 0.0 - - - - - - -
21/12:30pm 16.3 ENE 10 16 - - 0.0 - - - - - - -
21/12:00pm 17.2 ENE 11 17 - - 0.0 - - - - - - -
21/11:30am 16.8 ENE 12 18 - - 0.0 - - - - - - -
21/11:00am 16.4 ENE 10 18 - - 0.0 - - - - - - -
21/10:30am 15.6 ENE 13 21 - - 0.0 - - - - - - -
21/10:00am 14.2 E 11 18 - - 0.0 - - - - - - -
21/09:30am 14.2 E 11 17 - - 0.0 - - - - - - -
21/09:00am 11.4 E 11 15 - - 0.0 - - - - - - -
21/08:30am 11.1 E 12 17 - - 0.0 - - - - - - -
21/08:00am 11.0 E 13 18 - - 0.0 - - - - - - -
21/07:30am 10.3 E 11 16 - - 0.0 - - - - - - -
21/07:00am 10.2 E 11 14 - - 0.0 - - - - - - -
21/06:30am 10.1 E 11 15 - - 0.0 - - - - - - -
21/06:00am 10.4 E 9 15 - - 0.0 - - - - - - -
21/05:30am 10.7 E 11 16 - - 0.0 - - - - - - -
21/05:00am 10.7 E 10 16 - - 0.0 - - - - - - -
21/04:30am 10.8 E 10 15 - - 0.0 - - - - - - -
21/04:00am 10.8 E 10 16 - - 0.0 - - - - - - -
21/03:30am 10.8 E 11 15 - - 0.0 - - - - - - -
21/03:00am 10.9 E 9 13 - - 0.0 - - - - - - -
21/02:30am 11.2 E 10 14 - - 0.0 - - - - - - -
21/02:00am 11.5 E 10 18 - - 0.0 - - - - - - -
21/01:30am 11.6 E 10 15 - - 0.0 - - - - - - -
21/01:00am 11.5 E 9 14 - - 0.0 - - - - - - -
21/12:30am 12.0 E 12 19 - - 0.0 - - - - - - -
21/12:00am 12.0 E 10 16 - - 0.0 - - - - - - -
 
Date/Time
WST
Temp

°C
Wind Pressure Rain
since 9am
mm
Weather Cloud Vis
km
Sea
Height
m
Swell
Dir
 
Speed
knots
Gust
knots
hPa Trend Height
m
Period
s
Dir
20/11:30pm 11.8 E 10 14 - - 0.0 - - - - - - -
20/11:00pm 11.8 E 8 13 - - 0.0 - - - - - - -
20/10:30pm 12.0 E 9 13 - - 0.0 - - - - - - -
20/10:00pm 11.6 E 7 9 - - 0.0 - - - - - - -
20/09:30pm 11.4 ESE 6 9 - - 0.0 - - - - - - -
20/09:00pm 11.3 ESE 6 11 - - 0.0 - - - - - - -
20/08:30pm 11.8 ESE 7 11 - - 0.0 - - - - - - -
20/08:00pm 12.0 ESE 7 10 - - 0.0 - - - - - - -
20/07:30pm 12.3 ESE 6 11 - - 0.0 - - - - - - -
20/07:00pm 12.1 ESE 6 8 - - 0.0 - - - - - - -
20/06:30pm 12.9 ESE 6 10 - - 0.0 - - - - - - -
20/06:00pm 13.7 E 9 13 - - 0.0 - - - - - - -
20/05:30pm 13.9 E 7 12 - - 0.0 - - - - - - -
20/05:00pm 14.6 E 8 15 - - 0.0 - - - - - - -
20/04:30pm 15.4 E 12 20 - - 0.0 - - - - - - -
20/04:00pm 16.1 E 11 20 - - 0.0 - - - - - - -
20/03:30pm 16.9 ESE 11 22 - - 0.0 - - - - - - -
20/03:00pm 16.9 E 10 16 - - 0.0 - - - - - - -
20/02:30pm 17.1 ESE 10 18 - - 0.0 - - - - - - -
20/02:00pm 17.1 ESE 10 17 - - 0.0 - - - - - - -
20/01:30pm 16.5 E 12 19 - - 0.0 - - - - - - -
20/01:00pm 16.6 E 10 16 - - 0.0 - - - - - - -
20/12:30pm 16.3 E 13 20 - - 0.0 - - - - - - -
20/12:00pm 16.2 E 12 19 - - 0.0 - - - - - - -
20/11:30am 15.8 E 13 20 - - 0.0 - - - - - - -
20/11:00am 14.9 E 15 24 - - 0.0 - - - - - - -
20/10:30am 14.1 E 14 21 - - 0.0 - - - - - - -
20/10:00am 13.5 E 11 17 - - 0.0 - - - - - - -
20/09:30am 12.5 E 15 22 - - 0.0 - - - - - - -
20/09:00am 12.0 E 13 22 - - 0.0 - - - - - - -
20/08:30am 11.0 E 11 16 - - 0.0 - - - - - - -
20/08:00am 10.0 E 10 15 - - 0.0 - - - - - - -
20/07:30am 8.7 E 6 9 - - 0.0 - - - - - - -
20/07:00am 8.8 E 7 10 - - 0.0 - - - - - - -
20/06:30am 9.1 E 7 9 - - 0.0 - - - - - - -
20/06:00am 9.2 E 7 9 - - 0.0 - - - - - - -
20/05:30am 9.6 E 6 10 - - 0.0 - - - - - - -
20/05:00am 9.8 E 7 11 - - 0.0 - - - - - - -
20/04:30am 10.0 E 8 12 - - 0.0 - - - - - - -
20/04:00am 9.8 E 9 14 - - 0.0 - - - - - - -
20/03:30am 9.7 E 8 11 - - 0.0 - - - - - - -
20/03:00am 9.5 E 5 6 - - 0.0 - - - - - - -
20/02:30am 10.2 E 6 9 - - 0.0 - - - - - - -
20/02:00am 10.4 ESE 7 10 - - 0.0 - - - - - - -
20/01:30am 10.6 E 7 11 - - 0.0 - - - - - - -
20/01:00am 11.1 ESE 8 14 - - 0.0 - - - - - - -
20/12:30am 11.0 ESE 7 12 - - 0.0 - - - - - - -
20/12:00am 10.8 ESE 6 11 - - 0.0 - - - - - - -
 
Date/Time
WST
Temp

°C
Wind Pressure Rain
since 9am
mm
Weather Cloud Vis
km
Sea
Height
m
Swell
Dir
 
Speed
knots
Gust
knots
hPa Trend Height
m
Period
s
Dir
19/11:30pm 10.9 ESE 6 10 - - 0.0 - - - - - - -
19/11:00pm 11.2 ESE 6 11 - - 0.0 - - - - - - -
19/10:30pm 10.9 SE 5 8 - - 0.0 - - - - - - -
19/10:00pm 11.0 SE 5 10 - - 0.0 - - - - - - -
19/09:30pm 11.1 SE 5 7 - - 0.0 - - - - - - -
19/09:00pm 11.5 ESE 5 7 - - 0.0 - - - - - - -
19/08:30pm 11.3 SE 4 6 - - 0.0 - - - - - - -
19/08:00pm 11.6 ESE 4 5 - - 0.0 - - - - - - -
19/07:30pm 11.6 ESE 3 4 - - 0.0 - - - - - - -
19/07:00pm 12.2 ESE 3 4 - - 0.0 - - - - - - -
19/06:30pm 12.6 ESE 3 4 - - 0.0 - - - - - - -

Other Formats:

Comma delimited format used in spreadsheet applications
http://www.bom.gov.au/fwo/IDW60701/IDW60701.94614.axf

JavaScript Object Notation format (JSON) in row-major order
http://www.bom.gov.au/fwo/IDW60701/IDW60701.94614.json